Time;durP1;ratioP1;P1;durP2;ratioP2;P2;SDS_P1;SDS_P2;PMS_P1;PMS_P2;Temp;Humidity;BMP_temperature;BMP_pressure;BME280_temperature;BME280_humidity;BME280_pressure;Samples;Min_cycle;Max_cycle;Signal;HPM_P1;HPM_P2
2023/07/25 00:01:28;;;;;;;3.00;0.80;;;16.90;99.90;;;;;;5033384;28;20471;-84
2023/07/25 00:03:55;;;;;;;1.20;1.10;;;16.90;99.90;;;;;;5033251;28;20437;-84
2023/07/25 00:06:22;;;;;;;1.17;1.00;;;16.80;99.90;;;;;;5033144;28;20439;-84
2023/07/25 00:08:48;;;;;;;1.57;1.00;;;16.70;99.90;;;;;;5033361;28;20435;-84
2023/07/25 00:11:15;;;;;;;0.80;0.70;;;16.70;99.90;;;;;;5033267;28;20550;-84
2023/07/25 00:13:44;;;;;;;2.27;1.10;;;16.70;99.90;;;;;;5033365;28;20477;-84
2023/07/25 00:16:10;;;;;;;3.03;1.10;;;16.70;99.90;;;;;;5034100;28;20462;-84
2023/07/25 00:18:37;;;;;;;1.40;1.23;;;16.70;99.90;;;;;;5032913;28;21017;-84
2023/07/25 00:21:04;;;;;;;1.30;0.60;;;16.70;99.90;;;;;;5033155;28;20474;-84
2023/07/25 00:23:31;;;;;;;1.33;0.90;;;16.70;99.90;;;;;;5033760;28;20462;-84
2023/07/25 00:25:58;;;;;;;1.60;0.80;;;16.70;99.90;;;;;;5032701;28;21005;-84
2023/07/25 00:28:25;;;;;;;0.80;0.67;;;16.70;99.90;;;;;;5033321;28;20973;-84
2023/07/25 00:30:53;;;;;;;1.27;0.70;;;16.70;99.90;;;;;;5032735;28;20462;-84
2023/07/25 00:33:19;;;;;;;1.23;0.90;;;16.70;99.90;;;;;;5033071;28;20458;-84
2023/07/25 00:35:52;;;;;;;1.00;0.90;;;16.70;99.90;;;;;;5033012;28;20465;-84
2023/07/25 00:38:19;;;;;;;2.63;1.00;;;16.70;99.90;;;;;;5033034;28;20529;-84
2023/07/25 00:40:46;;;;;;;2.23;1.20;;;16.80;99.90;;;;;;5032932;28;20470;-84
2023/07/25 00:43:13;;;;;;;1.87;1.00;;;16.80;99.90;;;;;;5032721;28;20461;-84
2023/07/25 00:45:40;;;;;;;1.07;0.70;;;16.80;99.90;;;;;;5032886;28;20524;-84
2023/07/25 00:48:08;;;;;;;0.70;0.70;;;16.80;99.90;;;;;;5032750;28;20453;-84
2023/07/25 00:50:35;;;;;;;1.07;0.97;;;16.80;99.90;;;;;;5032889;28;20455;-84
2023/07/25 00:53:03;;;;;;;1.60;0.80;;;16.70;99.90;;;;;;5036437;28;20799;-84
2023/07/25 00:55:30;;;;;;;1.03;0.70;;;16.70;99.90;;;;;;5036359;28;20500;-84
2023/07/25 00:57:57;;;;;;;2.47;0.90;;;16.70;99.90;;;;;;5036526;28;20482;-84
2023/07/25 01:00:24;;;;;;;0.60;0.60;;;16.70;99.90;;;;;;5036510;28;20469;-84
2023/07/25 01:02:51;;;;;;;1.50;0.73;;;16.70;99.90;;;;;;5036422;28;20496;-84
2023/07/25 01:05:20;;;;;;;6.50;0.87;;;16.60;99.90;;;;;;5036198;28;20799;-84
2023/07/25 01:07:47;;;;;;;1.40;1.30;;;16.60;99.90;;;;;;5036191;28;20452;-84
2023/07/25 01:10:14;;;;;;;0.97;0.60;;;16.60;99.90;;;;;;5036334;28;20446;-84
2023/07/25 01:12:41;;;;;;;2.17;0.77;;;16.60;99.90;;;;;;5036236;28;20844;-84
2023/07/25 01:15:09;;;;;;;1.33;1.23;;;16.60;99.90;;;;;;5036247;28;20450;-84
2023/07/25 01:17:36;;;;;;;1.00;0.80;;;16.70;99.90;;;;;;5036142;28;20489;-84
2023/07/25 01:20:03;;;;;;;1.03;0.80;;;16.70;99.90;;;;;;5035863;28;20450;-84
2023/07/25 01:22:36;;;;;;;1.37;1.07;;;16.70;99.90;;;;;;5036498;28;20854;-84
2023/07/25 01:25:05;;;;;;;1.30;1.20;;;16.60;99.90;;;;;;5035926;28;20435;-84
2023/07/25 01:27:32;;;;;;;1.83;1.10;;;16.60;99.90;;;;;;5036474;28;20427;-84
2023/07/25 01:29:58;;;;;;;1.87;1.20;;;16.60;99.90;;;;;;5036209;28;20435;-84
2023/07/25 01:32:25;;;;;;;1.17;1.00;;;16.60;99.90;;;;;;5035925;28;20470;-83
2023/07/25 01:34:52;;;;;;;2.80;0.87;;;16.50;99.90;;;;;;5035565;28;20838;-84
2023/07/25 01:37:18;;;;;;;1.77;0.70;;;16.50;99.90;;;;;;5035781;28;20457;-84
2023/07/25 01:39:45;;;;;;;1.60;0.80;;;16.50;99.90;;;;;;5035879;28;20450;-84
2023/07/25 01:42:13;;;;;;;1.07;0.83;;;16.50;99.90;;;;;;5035757;28;20470;-84
2023/07/25 01:44:40;;;;;;;1.07;0.83;;;16.50;99.90;;;;;;5035779;28;20454;-84
2023/07/25 01:47:07;;;;;;;2.20;1.30;;;16.40;99.90;;;;;;5035757;28;20446;-84
2023/07/25 01:49:34;;;;;;;2.50;1.00;;;16.40;99.90;;;;;;5035651;28;20455;-84
2023/07/25 01:52:01;;;;;;;3.90;1.30;;;16.40;99.90;;;;;;5035578;28;20471;-84
2023/07/25 01:54:27;;;;;;;2.13;1.20;;;16.40;99.90;;;;;;5035618;28;20451;-84
2023/07/25 01:56:54;;;;;;;3.57;1.10;;;16.40;99.90;;;;;;5035511;28;20446;-84
2023/07/25 01:59:22;;;;;;;1.00;1.00;;;16.40;99.90;;;;;;5035594;28;20891;-84
2023/07/25 02:01:49;;;;;;;1.10;1.00;;;16.40;99.90;;;;;;5035097;28;20876;-84
2023/07/25 02:04:16;;;;;;;1.10;1.00;;;16.40;99.90;;;;;;5035352;28;20458;-84
2023/07/25 02:06:42;;;;;;;1.40;0.93;;;16.40;99.90;;;;;;5035360;28;20458;-84
2023/07/25 02:09:09;;;;;;;1.43;0.90;;;16.40;99.90;;;;;;5035236;28;20819;-84
2023/07/25 02:11:36;;;;;;;0.70;0.70;;;16.30;99.90;;;;;;5035147;28;20473;-84
2023/07/25 02:14:02;;;;;;;1.03;1.03;;;16.30;99.90;;;;;;5034909;28;20962;-84
2023/07/25 02:16:33;;;;;;;2.60;1.70;;;16.30;99.90;;;;;;5035122;28;20453;-84
2023/07/25 02:19:00;;;;;;;1.20;0.77;;;16.30;99.90;;;;;;5034878;28;20474;-84
2023/07/25 02:21:27;;;;;;;1.03;0.90;;;16.40;99.90;;;;;;5034961;28;20463;-84
2023/07/25 02:23:53;;;;;;;1.80;1.07;;;16.40;99.90;;;;;;5034649;28;20976;-84
2023/07/25 02:26:20;;;;;;;0.90;0.90;;;16.40;99.90;;;;;;5034808;28;20485;-84
2023/07/25 02:28:47;;;;;;;1.27;0.77;;;16.40;99.90;;;;;;5034663;28;20450;-84
2023/07/25 02:31:14;;;;;;;2.07;0.93;;;16.40;99.90;;;;;;5034450;28;20843;-84
2023/07/25 02:33:42;;;;;;;2.10;1.23;;;16.40;99.90;;;;;;5034507;28;20457;-84
2023/07/25 02:36:09;;;;;;;1.43;1.33;;;16.40;99.90;;;;;;5034458;28;20942;-84
2023/07/25 02:38:35;;;;;;;1.30;0.80;;;16.40;99.90;;;;;;5034415;28;20483;-84
2023/07/25 02:41:02;;;;;;;1.47;0.73;;;16.40;99.90;;;;;;5034614;28;20470;-84
2023/07/25 02:43:29;;;;;;;1.23;0.83;;;16.40;99.90;;;;;;5034579;28;20450;-83
2023/07/25 02:45:56;;;;;;;1.00;0.93;;;16.40;99.90;;;;;;5034239;28;20458;-84
2023/07/25 02:48:22;;;;;;;1.40;1.30;;;16.40;99.90;;;;;;5034184;28;20942;-84
2023/07/25 02:50:50;;;;;;;1.80;0.83;;;16.40;99.90;;;;;;5034406;28;20475;-84
2023/07/25 02:53:17;;;;;;;3.13;1.03;;;16.40;99.90;;;;;;5034136;28;20450;-84
2023/07/25 02:55:44;;;;;;;1.20;1.07;;;16.30;99.90;;;;;;5034109;28;20431;-84
2023/07/25 02:58:12;;;;;;;1.70;1.00;;;16.30;99.90;;;;;;5034004;28;21010;-84
2023/07/25 03:00:39;;;;;;;1.03;0.80;;;16.30;99.90;;;;;;5034922;28;20490;-84
2023/07/25 03:03:06;;;;;;;1.30;0.93;;;16.30;99.90;;;;;;5034237;28;20446;-84
2023/07/25 03:05:32;;;;;;;1.63;0.90;;;16.30;99.90;;;;;;5034606;28;20481;-84
2023/07/25 03:08:00;;;;;;;2.17;1.10;;;16.30;99.90;;;;;;5034340;28;20807;-85
2023/07/25 03:10:27;;;;;;;1.33;0.80;;;16.20;99.90;;;;;;5034090;28;20938;-84
2023/07/25 03:12:54;;;;;;;2.10;1.70;;;16.20;99.90;;;;;;5033815;28;20439;-84
2023/07/25 03:15:21;;;;;;;2.90;1.30;;;16.20;99.90;;;;;;5033486;28;20548;-84
2023/07/25 03:17:47;;;;;;;1.57;1.23;;;16.10;99.90;;;;;;5033913;28;20458;-84
2023/07/25 03:20:14;;;;;;;1.07;0.80;;;16.10;99.90;;;;;;5033630;28;20447;-84
2023/07/25 03:22:41;;;;;;;2.20;1.40;;;16.10;99.90;;;;;;5033922;28;20463;-84
2023/07/25 03:25:10;;;;;;;2.90;1.63;;;16.00;99.90;;;;;;5033639;28;20490;-84
2023/07/25 03:27:37;;;;;;;1.30;1.20;;;16.00;99.90;;;;;;5033891;28;20438;-84
2023/07/25 03:30:05;;;;;;;1.90;1.37;;;16.00;99.90;;;;;;5033881;28;20450;-84
2023/07/25 03:32:31;;;;;;;1.60;1.00;;;15.90;99.90;;;;;;5033478;28;20471;-84
2023/07/25 03:34:58;;;;;;;3.13;1.00;;;16.00;99.90;;;;;;5033743;28;20473;-84
2023/07/25 03:37:25;;;;;;;0.97;0.80;;;16.00;99.90;;;;;;5034148;28;20550;-84
2023/07/25 03:39:52;;;;;;;1.77;1.00;;;16.00;99.90;;;;;;5033210;28;20996;-84
2023/07/25 03:42:20;;;;;;;2.07;1.27;;;16.00;99.90;;;;;;5033682;28;20834;-84
2023/07/25 03:44:46;;;;;;;2.40;1.37;;;16.00;99.90;;;;;;5033624;28;20451;-84
2023/07/25 03:47:13;;;;;;;1.27;1.07;;;16.00;99.90;;;;;;5033566;28;20799;-84
2023/07/25 03:49:40;;;;;;;1.53;1.00;;;16.00;99.90;;;;;;5033549;28;20446;-84
2023/07/25 03:52:07;;;;;;;1.67;1.40;;;16.00;99.90;;;;;;5033186;28;20455;-84
2023/07/25 03:54:34;;;;;;;1.40;0.70;;;16.00;99.90;;;;;;5033486;28;20446;-84
2023/07/25 03:57:01;;;;;;;0.90;0.90;;;16.00;99.90;;;;;;5033502;28;20439;-84
2023/07/25 03:59:29;;;;;;;1.90;1.20;;;16.00;99.90;;;;;;5033330;28;20568;-84
2023/07/25 04:01:56;;;;;;;1.03;0.93;;;16.10;99.90;;;;;;5033392;28;20471;-84
2023/07/25 04:04:23;;;;;;;0.90;0.83;;;16.00;99.90;;;;;;5033357;28;20451;-84
2023/07/25 04:06:49;;;;;;;1.07;0.97;;;16.10;99.90;;;;;;5033102;28;20965;-84
2023/07/25 04:09:16;;;;;;;5.93;1.73;;;16.10;99.90;;;;;;5033327;28;20454;-84
2023/07/25 04:11:43;;;;;;;0.90;0.70;;;16.10;99.90;;;;;;5033239;28;20477;-84
2023/07/25 04:14:10;;;;;;;1.83;1.10;;;16.20;99.90;;;;;;5033261;28;20446;-84
2023/07/25 04:16:38;;;;;;;0.77;0.60;;;16.20;99.90;;;;;;5033417;28;20450;-84
2023/07/25 04:19:04;;;;;;;2.27;1.30;;;16.20;99.90;;;;;;5033098;28;20505;-84
2023/07/25 04:21:31;;;;;;;1.43;1.13;;;16.30;99.90;;;;;;5033153;28;20466;-84
2023/07/25 04:23:58;;;;;;;1.63;1.53;;;16.30;99.90;;;;;;5032942;28;20796;-84
2023/07/25 04:26:25;;;;;;;1.13;0.60;;;16.30;99.90;;;;;;5033820;28;20525;-84
2023/07/25 04:28:52;;;;;;;1.07;0.90;;;16.30;99.90;;;;;;5037138;28;20454;-84
2023/07/25 04:31:18;;;;;;;1.87;0.93;;;16.30;99.90;;;;;;5037007;28;20497;-84
2023/07/25 04:33:46;;;;;;;1.10;0.63;;;16.40;99.90;;;;;;5037002;28;20457;-84
2023/07/25 04:36:13;;;;;;;1.00;0.90;;;16.40;99.90;;;;;;5037017;28;20450;-84
2023/07/25 04:38:41;;;;;;;1.03;1.03;;;16.40;99.90;;;;;;5036619;28;20478;-84
2023/07/25 04:41:07;;;;;;;2.83;0.93;;;16.40;99.90;;;;;;5036588;28;20462;-84
2023/07/25 04:43:34;;;;;;;2.40;1.20;;;16.50;99.90;;;;;;5036617;28;20434;-84
2023/07/25 04:46:01;;;;;;;1.23;0.90;;;16.50;99.90;;;;;;5036857;28;20439;-84
2023/07/25 04:48:28;;;;;;;1.47;1.03;;;16.50;99.90;;;;;;5036771;28;20454;-84
2023/07/25 04:50:56;;;;;;;1.10;1.00;;;16.50;99.90;;;;;;5036599;28;20466;-84
2023/07/25 04:53:22;;;;;;;1.40;0.90;;;16.50;99.90;;;;;;5036724;28;20431;-84
2023/07/25 04:55:49;;;;;;;1.30;0.80;;;16.50;99.90;;;;;;5036694;28;20446;-85
2023/07/25 04:58:16;;;;;;;1.90;0.90;;;16.50;99.90;;;;;;5036524;28;20449;-85
2023/07/25 05:00:43;;;;;;;1.00;0.90;;;16.50;99.90;;;;;;5036104;28;20474;-84
2023/07/25 05:03:10;;;;;;;1.60;1.10;;;16.50;99.90;;;;;;5036267;28;20434;-84
2023/07/25 05:05:36;;;;;;;1.63;0.90;;;16.50;99.90;;;;;;5036492;28;20453;-84
2023/07/25 05:08:04;;;;;;;1.10;0.90;;;16.50;99.90;;;;;;5036436;28;20477;-85
2023/07/25 05:10:32;;;;;;;0.77;0.77;;;16.50;99.90;;;;;;5036324;28;20804;-84
2023/07/25 05:12:59;;;;;;;1.73;0.70;;;16.50;99.90;;;;;;5036345;28;20453;-84
2023/07/25 05:15:25;;;;;;;2.00;0.97;;;16.50;99.90;;;;;;5036301;28;20455;-83
2023/07/25 05:17:52;;;;;;;2.10;0.83;;;16.50;99.90;;;;;;5035965;28;20957;-84
2023/07/25 05:20:19;;;;;;;0.63;0.63;;;16.50;99.90;;;;;;5035740;28;21047;-85
2023/07/25 05:22:46;;;;;;;1.20;1.10;;;16.50;99.90;;;;;;5036150;28;20454;-84
2023/07/25 05:25:14;;;;;;;1.53;1.20;;;16.50;99.90;;;;;;5035725;28;20851;-84
2023/07/25 05:27:40;;;;;;;1.20;1.00;;;16.40;99.90;;;;;;5036175;28;20446;-84
2023/07/25 05:30:08;;;;;;;1.33;1.23;;;16.50;99.90;;;;;;5035740;28;20965;-84
2023/07/25 05:32:35;;;;;;;1.27;0.87;;;16.50;99.90;;;;;;5035607;28;20986;-83
2023/07/25 05:35:02;;;;;;;1.43;1.03;;;16.40;99.90;;;;;;5035845;28;20453;-84
2023/07/25 05:37:35;;;;;;;1.53;1.00;;;16.40;99.90;;;;;;5035356;28;20446;-84
2023/07/25 05:40:02;;;;;;;4.37;0.80;;;16.40;99.90;;;;;;5035596;28;20467;-85
2023/07/25 05:42:31;;;;;;;1.10;1.00;;;16.30;99.90;;;;;;5035791;28;20471;-83
2023/07/25 05:44:58;;;;;;;1.03;0.93;;;16.40;99.90;;;;;;5035709;28;20454;-83
2023/07/25 05:47:25;;;;;;;0.70;0.70;;;16.40;99.90;;;;;;5035745;28;20439;-84
2023/07/25 05:49:52;;;;;;;4.20;1.23;;;16.30;99.90;;;;;;5035706;28;20451;-83
2023/07/25 05:52:18;;;;;;;2.37;1.17;;;16.20;99.90;;;;;;5035613;28;20467;-84
2023/07/25 05:54:45;;;;;;;4.20;1.20;;;16.10;99.90;;;;;;5035536;28;20450;-84
2023/07/25 05:57:12;;;;;;;1.20;1.10;;;16.00;99.90;;;;;;5035250;28;20451;-83
2023/07/25 05:59:42;;;;;;;1.07;1.00;;;16.10;99.90;;;;;;5035192;28;20478;-84
2023/07/25 06:02:09;;;;;;;1.43;0.77;;;16.00;99.90;;;;;;5036203;28;20470;-84
2023/07/25 06:04:36;;;;;;;1.70;1.10;;;16.10;99.90;;;;;;5035270;28;20461;-84
2023/07/25 06:07:03;;;;;;;1.93;1.50;;;16.10;99.90;;;;;;5035131;28;20458;-84
2023/07/25 06:09:30;;;;;;;3.27;1.43;;;16.30;99.90;;;;;;5035296;28;20457;-84
2023/07/25 06:11:56;;;;;;;3.23;1.30;;;16.20;99.90;;;;;;5035159;28;20477;-84
2023/07/25 06:14:24;;;;;;;2.30;1.60;;;16.20;99.90;;;;;;5035164;28;20462;-83
2023/07/25 06:16:52;;;;;;;1.50;1.13;;;16.30;99.90;;;;;;5034983;28;20942;-83
2023/07/25 06:19:19;;;;;;;1.83;0.93;;;16.20;99.90;;;;;;5034979;28;20466;-83
2023/07/25 06:21:45;;;;;;;2.73;1.10;;;16.20;99.90;;;;;;5034962;28;20489;-83
2023/07/25 06:24:13;;;;;;;1.50;1.10;;;16.20;99.90;;;;;;5034928;28;20469;-83
2023/07/25 06:26:40;;;;;;;3.97;1.50;;;16.30;99.90;;;;;;5034529;28;20586;-83
2023/07/25 06:29:07;;;;;;;1.07;0.80;;;16.30;99.90;;;;;;5034575;28;21039;-84
2023/07/25 06:31:34;;;;;;;2.03;1.03;;;16.40;99.90;;;;;;5034671;28;20470;-83
2023/07/25 06:34:02;;;;;;;1.10;0.80;;;16.40;99.90;;;;;;5034743;28;20947;-83
2023/07/25 06:36:29;;;;;;;2.73;1.17;;;16.40;99.90;;;;;;5034713;28;20431;-83
2023/07/25 06:38:56;;;;;;;1.10;1.00;;;16.50;99.90;;;;;;5034602;28;20453;-83
2023/07/25 06:41:22;;;;;;;1.67;1.10;;;16.60;99.90;;;;;;5034292;28;20466;-83
2023/07/25 06:43:49;;;;;;;3.70;1.10;;;16.60;99.90;;;;;;5034504;28;20808;-83
2023/07/25 06:46:16;;;;;;;1.30;1.20;;;16.60;99.90;;;;;;5034470;28;20454;-83
2023/07/25 06:48:43;;;;;;;1.40;1.17;;;16.70;99.90;;;;;;5033733;28;20442;-83
2023/07/25 06:51:11;;;;;;;1.30;1.00;;;16.70;99.90;;;;;;5034312;28;20466;-83
2023/07/25 06:53:38;;;;;;;1.10;0.77;;;16.70;99.90;;;;;;5034313;28;20453;-83
2023/07/25 06:56:04;;;;;;;4.20;0.80;;;16.80;99.90;;;;;;5034024;28;20451;-83
2023/07/25 06:58:31;;;;;;;1.73;0.83;;;16.80;99.90;;;;;;5034333;28;20453;-83
2023/07/25 07:00:58;;;;;;;1.20;0.90;;;16.80;99.90;;;;;;5034174;28;20875;-83
2023/07/25 07:03:25;;;;;;;2.00;0.70;;;16.80;99.90;;;;;;5034298;28;20505;-83
2023/07/25 07:05:55;;;;;;;2.13;1.23;;;16.90;99.90;;;;;;5034023;28;20840;-83
2023/07/25 07:08:24;;;;;;;1.43;0.77;;;16.90;99.90;;;;;;5033929;28;20431;-83
2023/07/25 07:10:54;;;;;;;2.33;1.13;;;16.90;99.90;;;;;;5033993;28;20469;-82
2023/07/25 07:13:21;;;;;;;0.90;0.80;;;16.90;99.90;;;;;;5034112;28;20497;-82
2023/07/25 07:15:48;;;;;;;1.13;0.90;;;16.80;99.90;;;;;;5033720;28;20457;-82
2023/07/25 07:18:15;;;;;;;0.60;0.60;;;16.70;99.90;;;;;;5033814;28;20459;-82
2023/07/25 07:20:46;;;;;;;2.40;0.90;;;16.70;99.90;;;;;;5033747;28;20570;-83
2023/07/25 07:23:12;;;;;;;1.00;0.90;;;16.70;99.90;;;;;;5033937;28;20431;-83
2023/07/25 07:25:41;;;;;;;4.53;0.83;;;16.70;99.90;;;;;;5033586;28;20474;-83
2023/07/25 07:28:07;;;;;;;3.47;1.20;;;16.90;99.90;;;;;;5033745;28;20450;-83
2023/07/25 07:30:34;;;;;;;3.23;1.00;;;17.10;99.90;;;;;;5033449;28;20446;-83
2023/07/25 07:33:01;;;;;;;0.90;0.90;;;17.20;99.90;;;;;;5033402;28;20977;-83
2023/07/25 07:35:28;;;;;;;0.80;0.80;;;17.30;99.90;;;;;;5033531;28;20466;-83
2023/07/25 07:37:54;;;;;;;1.00;0.90;;;17.40;99.90;;;;;;5033730;28;20454;-83
2023/07/25 07:40:21;;;;;;;1.57;0.93;;;17.60;99.90;;;;;;5033560;28;20475;-84
2023/07/25 07:42:49;;;;;;;1.07;0.87;;;17.70;99.90;;;;;;5033440;28;20457;-85
2023/07/25 07:45:16;;;;;;;1.53;0.90;;;17.90;99.90;;;;;;5033646;28;20450;-84
2023/07/25 07:47:43;;;;;;;1.30;0.90;;;18.00;99.90;;;;;;5033527;28;20462;-85
2023/07/25 07:50:10;;;;;;;3.03;0.90;;;18.10;99.90;;;;;;5033508;28;20443;-84
2023/07/25 07:52:41;;;;;;;2.67;1.00;;;18.10;99.90;;;;;;5033653;28;20466;-85
2023/07/25 07:55:09;;;;;;;1.83;0.90;;;18.00;99.90;;;;;;5033511;28;20446;-85
2023/07/25 07:57:39;;;;;;;2.60;1.07;;;18.00;99.90;;;;;;5033425;28;20451;-85
2023/07/25 08:00:11;;;;;;;0.93;0.70;;;18.10;99.90;;;;;;5033442;28;20483;-85
2023/07/25 08:02:38;;;;;;;0.90;0.80;;;18.30;99.90;;;;;;5033598;28;20882;-85
2023/07/25 08:05:06;;;;;;;0.97;0.77;;;18.40;99.90;;;;;;5033435;28;20966;-85
2023/07/25 08:07:32;;;;;;;0.90;0.77;;;18.50;99.90;;;;;;5034405;28;20431;-85
2023/07/25 08:09:59;;;;;;;1.87;1.10;;;18.60;99.90;;;;;;5033944;28;20443;-85
2023/07/25 08:12:26;;;;;;;0.53;0.53;;;18.80;99.90;;;;;;5033517;28;20467;-85
2023/07/25 08:14:53;;;;;;;0.97;0.87;;;18.90;99.90;;;;;;5033724;28;20934;-86
2023/07/25 08:17:21;;;;;;;1.33;0.50;;;18.70;99.90;;;;;;5033650;28;20478;-85
2023/07/25 08:19:48;;;;;;;0.90;0.80;;;18.70;99.90;;;;;;5033285;28;20569;-85
2023/07/25 08:22:15;;;;;;;1.10;0.87;;;18.60;99.90;;;;;;5033486;28;20473;-85
2023/07/25 08:24:42;;;;;;;1.17;0.97;;;18.60;99.90;;;;;;5033468;28;20855;-85
2023/07/25 08:27:09;;;;;;;0.90;0.90;;;18.60;99.90;;;;;;5033159;28;20501;-85
2023/07/25 08:29:40;;;;;;;0.90;0.70;;;18.60;99.90;;;;;;5033492;28;20811;-85
2023/07/25 08:32:08;;;;;;;1.03;0.93;;;18.60;99.90;;;;;;5033759;28;20906;-86
2023/07/25 08:34:37;;;;;;;1.33;1.00;;;18.60;99.90;;;;;;5033572;28;20489;-84
2023/07/25 08:37:04;;;;;;;0.80;0.73;;;18.60;99.90;;;;;;5033359;28;20453;-85
2023/07/25 08:39:31;;;;;;;1.73;0.70;;;18.60;99.90;;;;;;5033457;28;20820;-84
2023/07/25 08:41:59;;;;;;;0.90;0.73;;;18.40;99.90;;;;;;5032970;28;20486;-83
2023/07/25 08:44:27;;;;;;;6.17;0.93;;;18.20;99.90;;;;;;5033025;28;20797;-83
2023/07/25 08:46:56;;;;;;;2.57;0.80;;;18.00;99.90;;;;;;5032637;28;20453;-83
2023/07/25 08:49:25;;;;;;;0.97;0.80;;;17.60;99.90;;;;;;5032918;28;20451;-82
2023/07/25 08:51:57;;;;;;;2.10;0.70;;;17.30;99.90;;;;;;5032858;28;20478;-82
2023/07/25 08:54:30;;;;;;;1.53;0.60;;;17.00;99.90;;;;;;5032585;28;20806;-81
2023/07/25 08:56:57;;;;;;;1.47;0.77;;;16.80;99.90;;;;;;5032596;28;20427;-82
2023/07/25 08:59:24;;;;;;;1.00;0.67;;;16.60;99.90;;;;;;5032535;28;20938;-82
2023/07/25 09:01:52;;;;;;;0.50;0.50;;;16.50;99.90;;;;;;5032302;28;20494;-82
2023/07/25 09:04:19;;;;;;;1.40;0.70;;;16.40;99.90;;;;;;5032784;28;20450;-81
2023/07/25 09:06:46;;;;;;;1.10;0.73;;;16.40;99.90;;;;;;5032503;28;20461;-81
2023/07/25 09:09:16;;;;;;;1.10;0.60;;;16.40;99.90;;;;;;5032731;28;20494;-81
2023/07/25 09:11:44;;;;;;;0.70;0.70;;;16.50;99.90;;;;;;5032657;28;20466;-82
2023/07/25 09:14:11;;;;;;;1.63;0.63;;;16.60;99.90;;;;;;5036018;28;20435;-82
2023/07/25 09:16:38;;;;;;;1.23;0.50;;;16.80;99.90;;;;;;5035944;28;20946;-82
2023/07/25 09:19:05;;;;;;;0.50;0.50;;;17.00;99.90;;;;;;5036140;28;20453;-83
2023/07/25 09:21:32;;;;;;;0.50;0.50;;;17.20;99.90;;;;;;5035729;28;20486;-83
2023/07/25 09:24:00;;;;;;;0.63;0.60;;;17.40;99.90;;;;;;5035835;28;20435;-76
2023/07/25 09:26:30;;;;;;;0.93;0.60;;;17.70;99.90;;;;;;5035634;28;20478;-82
2023/07/25 09:29:00;;;;;;;0.87;0.57;;;17.90;99.90;;;;;;5035721;28;20446;-83
2023/07/25 09:31:28;;;;;;;0.50;0.50;;;18.00;99.90;;;;;;5035864;28;20471;-83
2023/07/25 09:33:56;;;;;;;0.70;0.60;;;18.10;99.90;;;;;;5036171;28;20818;-83
2023/07/25 09:36:23;;;;;;;0.80;0.57;;;18.20;99.90;;;;;;5035930;28;20911;-83
2023/07/25 09:38:50;;;;;;;0.60;0.60;;;18.30;99.90;;;;;;5035884;28;20454;-83
2023/07/25 09:41:17;;;;;;;0.80;0.60;;;18.40;99.90;;;;;;5035678;28;20487;-84
2023/07/25 09:43:45;;;;;;;0.77;0.77;;;18.50;99.90;;;;;;5035763;28;20427;-84
2023/07/25 09:46:13;;;;;;;1.90;0.80;;;18.60;99.90;;;;;;5035759;28;20481;-84
2023/07/25 09:48:43;;;;;;;2.87;1.27;;;18.80;99.90;;;;;;5035770;28;20808;-85
2023/07/25 09:51:11;;;;;;;0.93;0.70;;;19.00;99.90;;;;;;5035348;28;20978;-85
2023/07/25 09:53:38;;;;;;;0.80;0.50;;;19.10;99.90;;;;;;5035634;28;20438;-85
2023/07/25 09:56:05;;;;;;;1.77;0.73;;;19.20;99.90;;;;;;5035444;28;20958;-85
2023/07/25 09:58:32;;;;;;;0.50;0.50;;;19.30;99.90;;;;;;5035857;28;20827;-84
2023/07/25 10:01:01;;;;;;;0.60;0.60;;;19.50;99.90;;;;;;5035276;28;20479;-84
2023/07/25 10:03:29;;;;;;;0.50;0.50;;;19.40;99.90;;;;;;5035235;28;20451;-84
2023/07/25 10:05:57;;;;;;;1.83;0.70;;;19.50;99.90;;;;;;5035541;28;20508;-85
2023/07/25 10:08:26;;;;;;;0.50;0.50;;;19.40;99.90;;;;;;5035240;28;20437;-84
2023/07/25 10:10:55;;;;;;;0.77;0.50;;;19.50;99.90;;;;;;5035425;28;20467;-84
2023/07/25 10:13:22;;;;;;;0.60;0.50;;;19.60;99.90;;;;;;5035356;28;20457;-84
2023/07/25 10:15:50;;;;;;;0.60;0.60;;;19.60;99.90;;;;;;5035086;28;20446;-84
2023/07/25 10:18:25;;;;;;;0.60;0.60;;;19.60;99.90;;;;;;5034926;28;20439;-85
2023/07/25 10:20:53;;;;;;;0.73;0.70;;;19.70;99.90;;;;;;5034723;28;20486;-84
2023/07/25 10:23:20;;;;;;;0.93;0.70;;;19.90;99.90;;;;;;5035022;28;20450;-84
2023/07/25 10:25:47;;;;;;;2.37;0.60;;;20.10;99.90;;;;;;5034396;28;21003;-84
2023/07/25 10:28:14;;;;;;;1.27;0.60;;;20.10;99.90;;;;;;5035021;28;20815;-83
2023/07/25 10:30:43;;;;;;;2.30;0.70;;;20.00;99.90;;;;;;5034813;28;20873;-83
2023/07/25 10:33:12;;;;;;;0.50;0.40;;;19.90;99.90;;;;;;5034554;28;20431;-83
2023/07/25 10:35:52;;;;;;;1.00;0.90;;;19.70;99.90;;;;;;5034725;28;20447;-84
2023/07/25 10:38:30;;;;;;;1.80;1.00;;;19.40;99.90;;;;;;5034883;28;20438;-83
2023/07/25 10:40:58;;;;;;;1.53;0.87;;;19.00;99.90;;;;;;5034255;28;21016;-84
2023/07/25 10:43:29;;;;;;;1.53;0.80;;;18.60;99.90;;;;;;5034334;28;20458;-83
2023/07/25 10:45:57;;;;;;;3.03;0.77;;;18.50;99.90;;;;;;5035079;28;20775;-84
2023/07/25 10:48:45;;;;;;;0.47;0.40;;;18.30;99.90;;;;;;5034249;28;20946;-83
2023/07/25 10:51:15;;;;;;;0.77;0.60;;;18.10;99.90;;;;;;5034191;28;20466;-83
2023/07/25 10:54:02;;;;;;;0.50;0.50;;;18.00;99.90;;;;;;5034517;28;20530;-83
2023/07/25 10:56:30;;;;;;;0.50;0.50;;;18.00;99.90;;;;;;5033987;28;20443;-83
2023/07/25 10:59:05;;;;;;;0.50;0.50;;;18.00;99.90;;;;;;5034107;28;20426;-83
2023/07/25 11:01:38;;;;;;;0.77;0.70;;;18.10;99.90;;;;;;5033839;28;21015;-83
2023/07/25 11:04:20;;;;;;;0.40;0.40;;;18.40;99.90;;;;;;5034253;28;20438;-83
2023/07/25 11:06:48;;;;;;;0.73;0.40;;;18.80;99.90;;;;;;5031944;28;20446;-83
2023/07/25 11:09:16;;;;;;;1.23;0.50;;;19.20;99.90;;;;;;5033831;28;20989;-83
2023/07/25 11:11:44;;;;;;;0.50;0.50;;;19.90;99.90;;;;;;5034027;28;20552;-83
2023/07/25 11:14:14;;;;;;;0.80;0.50;;;20.60;99.90;;;;;;5034006;28;20442;-84
2023/07/25 11:16:42;;;;;;;0.40;0.40;;;20.80;99.90;;;;;;5034020;28;20484;-83
2023/07/25 11:19:10;;;;;;;0.67;0.50;;;21.10;99.90;;;;;;5033846;28;20434;-83
2023/07/25 11:21:40;;;;;;;0.50;0.50;;;21.20;99.90;;;;;;5033604;28;20486;-87
2023/07/25 11:24:11;;;;;;;0.80;0.60;;;21.20;99.90;;;;;;5033803;28;20513;-81
2023/07/25 11:26:38;;;;;;;1.40;0.57;;;21.30;99.90;;;;;;5033408;28;20477;-82
2023/07/25 11:29:06;;;;;;;0.50;0.50;;;21.20;99.90;;;;;;5033853;28;20485;-82
2023/07/25 11:31:33;;;;;;;0.80;0.77;;;21.00;99.90;;;;;;5033685;28;20466;-82
2023/07/25 11:34:11;;;;;;;0.60;0.60;;;20.80;99.90;;;;;;5033667;28;20457;-82
2023/07/25 11:36:39;;;;;;;0.50;0.50;;;20.70;99.90;;;;;;5032986;28;20937;-81
2023/07/25 11:39:06;;;;;;;1.80;0.50;;;20.50;99.90;;;;;;5033648;28;20431;-82
2023/07/25 11:41:35;;;;;;;0.73;0.50;;;20.40;99.90;;;;;;5033498;28;20500;-82
2023/07/25 11:44:06;;;;;;;0.60;0.60;;;20.30;99.90;;;;;;5033623;28;20443;-82
2023/07/25 11:46:33;;;;;;;0.60;0.60;;;20.30;99.90;;;;;;5033631;28;20435;-82
2023/07/25 11:49:00;;;;;;;0.50;0.50;;;20.30;99.90;;;;;;5033528;28;20453;-82
2023/07/25 11:51:27;;;;;;;0.70;0.50;;;20.50;99.90;;;;;;5033090;28;20473;-82
2023/07/25 11:53:55;;;;;;;0.50;0.50;;;20.70;99.90;;;;;;5033469;28;20462;-83
2023/07/25 11:56:22;;;;;;;0.63;0.63;;;20.90;99.90;;;;;;5033463;28;20450;-82
2023/07/25 11:58:50;;;;;;;0.87;0.50;;;20.90;99.90;;;;;;5033147;28;20453;-82
2023/07/25 12:01:18;;;;;;;0.50;0.50;;;21.00;99.90;;;;;;5033094;28;20513;-82
2023/07/25 12:03:49;;;;;;;1.07;0.70;;;21.00;99.90;;;;;;5033062;28;21013;-81
2023/07/25 12:06:17;;;;;;;0.80;0.60;;;20.80;99.90;;;;;;5033401;28;20773;-82
2023/07/25 12:08:45;;;;;;;1.03;0.60;;;20.70;99.90;;;;;;5033321;28;20447;-82
2023/07/25 12:11:14;;;;;;;1.33;0.50;;;20.70;99.90;;;;;;5033071;28;20480;-83
2023/07/25 12:13:46;;;;;;;0.50;0.40;;;20.60;99.90;;;;;;5033720;28;20459;-82
2023/07/25 12:16:31;;;;;;;0.40;0.40;;;20.50;99.90;;;;;;5033242;28;20447;-82
2023/07/25 12:18:59;;;;;;;0.40;0.40;;;20.10;99.90;;;;;;5032937;28;20427;-83
2023/07/25 12:21:28;;;;;;;0.30;0.30;;;19.80;99.90;;;;;;5032866;28;20489;-84
2023/07/25 12:23:57;;;;;;;0.40;0.30;;;19.80;99.90;;;;;;5033374;28;20848;-83
2023/07/25 12:26:24;;;;;;;0.50;0.40;;;19.80;99.90;;;;;;5032715;28;20569;-83
2023/07/25 12:28:51;;;;;;;0.40;0.30;;;19.90;99.90;;;;;;5033159;28;20443;-83
2023/07/25 12:31:19;;;;;;;0.50;0.40;;;19.80;99.90;;;;;;5033094;28;20477;-83
2023/07/25 12:33:51;;;;;;;0.40;0.30;;;19.80;99.90;;;;;;5033178;28;20493;-83
2023/07/25 12:36:19;;;;;;;0.40;0.33;;;19.80;99.90;;;;;;5033123;28;20412;-82
2023/07/25 12:38:46;;;;;;;0.60;0.40;;;19.70;99.90;;;;;;5033410;28;20442;-83
2023/07/25 12:41:13;;;;;;;0.50;0.40;;;19.60;99.90;;;;;;5032952;28;20493;-82
2023/07/25 12:43:40;;;;;;;0.70;0.50;;;19.60;99.90;;;;;;5032988;28;20455;-82
2023/07/25 12:46:07;;;;;;;0.40;0.30;;;19.60;99.90;;;;;;5032676;28;20446;-82
2023/07/25 12:48:34;;;;;;;0.40;0.40;;;19.60;99.90;;;;;;5035780;28;20454;-82
2023/07/25 12:51:02;;;;;;;0.40;0.37;;;19.70;99.90;;;;;;5036730;28;20470;-82